Aviation Digital Data Service (ADDS)

Output produced by TAFs form (0806 UTC 21 September 2014)
found at http://aviationweather.gov/adds/tafs/
 
KTCC 210530Z 2106/2206 19005KT P6SM BKN250 
     FM211000 VRB03KT P6SM BKN015 
     FM211500 06007KT P6SM BKN030 
     FM211800 10011KT P6SM VCSH BKN040 
     TEMPO 2122/2202 4SM -TSRA OVC030CB